AQJ weather

Aqaba King Hussein International Airport
Aqaba, Al 'Aqaba Governorate, Jordan

Public forecast

Using degrees Celsius for public forecast. Weather courtesy of forecast.io.

METAR (pilot weather report)

Retrieved 2019/05/19 07:00 UTC (51 minutes ago):

OJAQ 190700Z 36010KT CAVOK 30/02 Q1010 NOSIG

TAF (pilot weather forecast)

Retrieved 2019/05/19 06:00 UTC (2 hours ago):

TAF OJAQ 190440Z 1906/2012 36012KT 8000 NSC PROB40 1910/1917 36016KT 5000 BLDU